Time,TemperatureF,DewpointF,PressureIn,WindDirection,WindDirectionDegrees,WindSpeedMPH,WindSpeedGustMPH,Humidity,HourlyPrecipIn,Conditions,Clouds,dailyrainin,SoftwareType,DateUTC
2013-03-02 00:01:00,24.0,20.0,-100.00,WSW,239,2.0,4.0,83,-99.99,,,-99.99,,2013-03-02 07:01:00,
2013-03-02 00:11:00,24.0,20.0,-100.00,SW,234,1.0,4.0,84,-99.99,,,-99.99,,2013-03-02 07:11:00,
2013-03-02 00:21:00,24.0,20.0,-100.00,SW,234,1.0,4.0,84,-99.99,,,-99.99,,2013-03-02 07:21:00,
2013-03-02 00:32:00,24.0,20.0,-100.00,SW,234,1.0,4.0,84,-99.99,,,-99.99,,2013-03-02 07:32:00,
2013-03-02 00:42:00,24.0,20.0,-100.00,WSW,250,2.0,3.0,84,-99.99,,,-99.99,,2013-03-02 07:42:00,
2013-03-02 00:52:00,24.0,20.0,-100.00,SSW,209,2.0,3.0,84,-99.99,,,-99.99,,2013-03-02 07:52:00,
2013-03-02 01:01:00,24.0,20.0,-100.00,SSW,209,2.0,3.0,84,-99.99,,,-99.99,,2013-03-02 08:01:00,
2013-03-02 01:11:00,23.0,19.0,-100.00,SW,227,2.0,3.0,84,-99.99,,,-99.99,,2013-03-02 08:11:00,
2013-03-02 01:21:00,23.0,19.0,-100.00,SW,227,2.0,3.0,84,-99.99,,,-99.99,,2013-03-02 08:21:00,
2013-03-02 01:31:00,23.0,19.0,-100.00,SW,227,2.0,3.0,84,-99.99,,,-99.99,,2013-03-02 08:31:00,
2013-03-02 01:42:00,23.0,19.0,-100.00,WSW,240,2.0,4.0,84,-99.99,,,-99.99,,2013-03-02 08:42:00,
2013-03-02 01:52:00,21.0,18.0,-100.00,WSW,243,3.0,3.0,84,-99.99,,,-99.99,,2013-03-02 08:52:00,
2013-03-02 02:01:00,21.0,18.0,-100.00,WSW,243,3.0,3.0,84,-99.99,,,-99.99,,2013-03-02 09:01:00,
2013-03-02 02:11:00,21.0,18.0,-100.00,WSW,241,3.0,5.0,85,-99.99,,,-99.99,,2013-03-02 09:11:00,
2013-03-02 02:21:00,21.0,18.0,-100.00,WSW,241,3.0,5.0,85,-99.99,,,-99.99,,2013-03-02 09:21:00,
2013-03-02 02:31:00,21.0,18.0,-100.00,WSW,241,3.0,5.0,85,-99.99,,,-99.99,,2013-03-02 09:31:00,
2013-03-02 02:42:00,21.0,17.0,-100.00,SW,231,2.0,3.0,85,-99.99,,,-99.99,,2013-03-02 09:42:00,
2013-03-02 02:52:00,21.0,17.0,-100.00,WSW,250,2.0,3.0,85,-99.99,,,-99.99,,2013-03-02 09:52:00,
2013-03-02 03:01:00,21.0,17.0,-100.00,WSW,250,2.0,3.0,85,-99.99,,,-99.99,,2013-03-02 10:01:00,
2013-03-02 03:14:00,20.0,17.0,-100.00,WSW,241,2.0,3.0,85,-99.99,,,-99.99,,2013-03-02 10:14:00,
2013-03-02 03:21:00,20.0,17.0,-100.00,WSW,241,2.0,3.0,85,-99.99,,,-99.99,,2013-03-02 10:21:00,
2013-03-02 03:31:00,20.0,17.0,-100.00,WSW,241,2.0,3.0,85,-99.99,,,-99.99,,2013-03-02 10:31:00,
2013-03-02 03:42:00,19.0,16.0,-100.00,SW,234,3.0,4.0,85,-99.99,,,-99.99,,2013-03-02 10:42:00,
2013-03-02 03:52:00,19.0,16.0,-100.00,SW,224,2.0,4.0,86,-99.99,,,-99.99,,2013-03-02 10:52:00,
2013-03-02 04:01:00,19.0,16.0,-100.00,SW,224,2.0,4.0,86,-99.99,,,-99.99,,2013-03-02 11:01:00,
2013-03-02 04:11:00,19.0,16.0,-100.00,WSW,247,3.0,4.0,86,-99.99,,,-99.99,,2013-03-02 11:11:00,
2013-03-02 04:21:00,19.0,16.0,-100.00,WSW,247,3.0,4.0,86,-99.99,,,-99.99,,2013-03-02 11:21:00,
2013-03-02 04:31:00,19.0,16.0,-100.00,WSW,247,3.0,4.0,86,-99.99,,,-99.99,,2013-03-02 11:31:00,
2013-03-02 04:41:00,20.0,16.0,-100.00,SW,233,1.0,3.0,86,-99.99,,,-99.99,,2013-03-02 11:41:00,
2013-03-02 04:52:00,18.0,15.0,-100.00,WSW,246,2.0,3.0,86,-99.99,,,-99.99,,2013-03-02 11:52:00,
2013-03-02 05:02:00,18.0,15.0,-100.00,WSW,246,2.0,3.0,86,-99.99,,,-99.99,,2013-03-02 12:02:00,
2013-03-02 05:11:00,17.0,14.0,-100.00,WSW,248,3.0,4.0,86,-99.99,,,-99.99,,2013-03-02 12:11:00,
2013-03-02 05:21:00,17.0,14.0,-100.00,WSW,248,3.0,4.0,86,-99.99,,,-99.99,,2013-03-02 12:21:00,
2013-03-02 05:32:00,17.0,14.0,-100.00,WSW,248,3.0,4.0,86,-99.99,,,-99.99,,2013-03-02 12:32:00,
2013-03-02 05:43:00,18.0,15.0,-100.00,WSW,248,2.0,4.0,86,-99.99,,,-99.99,,2013-03-02 12:43:00,
2013-03-02 05:53:00,18.0,15.0,-100.00,WSW,248,2.0,4.0,86,-99.99,,,-99.99,,2013-03-02 12:53:00,
2013-03-02 06:01:00,18.0,14.0,-100.00,WSW,255,3.0,4.0,87,-99.99,,,-99.99,,2013-03-02 13:01:00,
2013-03-02 06:11:00,17.0,14.0,-100.00,WSW,247,2.0,5.0,87,-99.99,,,-99.99,,2013-03-02 13:11:00,
2013-03-02 06:21:00,17.0,14.0,-100.00,WSW,247,2.0,5.0,87,-99.99,,,-99.99,,2013-03-02 13:21:00,
2013-03-02 06:31:00,17.0,14.0,-100.00,WSW,247,2.0,5.0,87,-99.99,,,-99.99,,2013-03-02 13:31:00,
2013-03-02 06:41:00,18.0,15.0,-100.00,SW,230,1.0,3.0,87,-99.99,,,-99.99,,2013-03-02 13:41:00,
2013-03-02 06:52:00,18.0,15.0,-100.00,SW,230,1.0,3.0,87,-99.99,,,-99.99,,2013-03-02 13:52:00,
2013-03-02 07:01:00,18.0,15.0,-100.00,WSW,251,1.0,3.0,87,-99.99,,,-99.99,,2013-03-02 14:01:00,
2013-03-02 07:11:00,19.0,16.0,-100.00,SSW,196,1.0,2.0,87,-99.99,,,-99.99,,2013-03-02 14:11:00,
2013-03-02 07:21:00,19.0,16.0,-100.00,SSW,196,1.0,2.0,87,-99.99,,,-99.99,,2013-03-02 14:21:00,
2013-03-02 07:31:00,19.0,16.0,-100.00,SSW,196,1.0,2.0,87,-99.99,,,-99.99,,2013-03-02 14:31:00,
2013-03-02 07:42:00,19.0,16.0,-100.00,SW,215,1.0,2.0,87,-99.99,,,-99.99,,2013-03-02 14:42:00,
2013-03-02 07:52:00,19.0,16.0,-100.00,SW,215,1.0,2.0,87,-99.99,,,-99.99,,2013-03-02 14:52:00,
2013-03-02 08:01:00,19.0,16.0,-100.00,SSE,161,1.0,3.0,87,-99.99,,,-99.99,,2013-03-02 15:01:00,
2013-03-02 08:11:00,21.0,18.0,-100.00,SSW,197,1.0,2.0,86,-99.99,,,-99.99,,2013-03-02 15:11:00,
2013-03-02 08:21:00,21.0,18.0,-100.00,SSW,197,1.0,2.0,86,-99.99,,,-99.99,,2013-03-02 15:21:00,
2013-03-02 08:31:00,21.0,18.0,-100.00,SSW,197,1.0,2.0,86,-99.99,,,-99.99,,2013-03-02 15:31:00,
2013-03-02 08:41:00,23.0,19.0,-100.00,SW,222,1.0,2.0,83,-99.99,,,-99.99,,2013-03-02 15:41:00,
2013-03-02 08:52:00,23.0,19.0,-100.00,SW,222,1.0,2.0,83,-99.99,,,-99.99,,2013-03-02 15:52:00,
2013-03-02 09:01:00,25.0,20.0,-100.00,SSE,150,1.0,2.0,81,-99.99,,,-99.99,,2013-03-02 16:01:00,
2013-03-02 09:11:00,26.0,20.0,-100.00,SW,221,1.0,3.0,77,-99.99,,,-99.99,,2013-03-02 16:11:00,
2013-03-02 09:21:00,26.0,20.0,-100.00,SW,221,1.0,3.0,77,-99.99,,,-99.99,,2013-03-02 16:21:00,
2013-03-02 09:31:00,26.0,20.0,-100.00,SW,221,1.0,3.0,77,-99.99,,,-99.99,,2013-03-02 16:31:00,
2013-03-02 09:41:00,32.0,24.0,-100.00,SSE,159,4.0,7.0,71,-99.99,,,-99.99,,2013-03-02 16:41:00,
2013-03-02 09:52:00,32.0,24.0,-100.00,SSE,159,4.0,7.0,71,-99.99,,,-99.99,,2013-03-02 16:52:00,
2013-03-02 10:01:00,36.0,25.0,-100.00,SSE,167,4.0,7.0,64,-99.99,,,-99.99,,2013-03-02 17:01:00,
2013-03-02 10:11:00,37.0,25.0,-100.00,SE,137,4.0,6.0,61,-99.99,,,-99.99,,2013-03-02 17:11:00,
2013-03-02 10:21:00,37.0,25.0,-100.00,SE,137,4.0,6.0,61,-99.99,,,-99.99,,2013-03-02 17:21:00,
2013-03-02 10:31:00,37.0,25.0,-100.00,SE,137,4.0,6.0,61,-99.99,,,-99.99,,2013-03-02 17:31:00,
2013-03-02 10:41:00,37.0,25.0,-100.00,ESE,117,4.0,8.0,60,-99.99,,,-99.99,,2013-03-02 17:41:00,
2013-03-02 10:52:00,37.0,25.0,-100.00,ESE,117,4.0,8.0,60,-99.99,,,-99.99,,2013-03-02 17:52:00,
2013-03-02 11:01:00,38.0,25.0,-100.00,SE,124,4.0,8.0,59,-99.99,,,-99.99,,2013-03-02 18:01:00,
2013-03-02 11:11:00,39.0,25.0,-100.00,ESE,119,4.0,7.0,55,-99.99,,,-99.99,,2013-03-02 18:11:00,
2013-03-02 11:22:00,39.0,25.0,-100.00,ESE,119,4.0,7.0,55,-99.99,,,-99.99,,2013-03-02 18:22:00,
2013-03-02 11:31:00,39.0,25.0,-100.00,ESE,119,4.0,7.0,55,-99.99,,,-99.99,,2013-03-02 18:31:00,
2013-03-02 11:41:00,41.0,25.0,-100.00,East,98,1.0,3.0,52,-99.99,,,-99.99,,2013-03-02 18:41:00,
2013-03-02 11:52:00,42.0,25.0,-100.00,East,88,1.0,3.0,50,-99.99,,,-99.99,,2013-03-02 18:52:00,
2013-03-02 12:01:00,42.0,25.0,-100.00,East,88,1.0,3.0,50,-99.99,,,-99.99,,2013-03-02 19:01:00,
2013-03-02 12:11:00,42.0,25.0,-100.00,East,84,2.0,5.0,50,-99.99,,,-99.99,,2013-03-02 19:11:00,
2013-03-02 12:21:00,42.0,25.0,-100.00,East,84,2.0,5.0,50,-99.99,,,-99.99,,2013-03-02 19:21:00,
2013-03-02 12:31:00,42.0,25.0,-100.00,East,84,2.0,5.0,50,-99.99,,,-99.99,,2013-03-02 19:31:00,
2013-03-02 12:42:00,44.0,26.0,-100.00,SE,129,3.0,6.0,47,-99.99,,,-99.99,,2013-03-02 19:42:00,
2013-03-02 12:52:00,44.0,26.0,-100.00,SE,129,3.0,6.0,47,-99.99,,,-99.99,,2013-03-02 19:52:00,
2013-03-02 13:01:00,45.0,25.0,-100.00,ESE,111,3.0,4.0,44,-99.99,,,-99.99,,2013-03-02 20:01:00,
2013-03-02 13:11:00,45.0,25.0,-100.00,East,88,2.0,5.0,45,-99.99,,,-99.99,,2013-03-02 20:11:00,
2013-03-02 13:21:00,45.0,25.0,-100.00,East,88,2.0,5.0,45,-99.99,,,-99.99,,2013-03-02 20:21:00,
2013-03-02 13:31:00,45.0,25.0,-100.00,East,88,2.0,5.0,45,-99.99,,,-99.99,,2013-03-02 20:31:00,
2013-03-02 13:41:00,47.0,22.0,-100.00,West,261,7.0,13.0,37,-99.99,,,-99.99,,2013-03-02 20:41:00,
2013-03-02 13:52:00,47.0,22.0,-100.00,West,261,7.0,13.0,37,-99.99,,,-99.99,,2013-03-02 20:52:00,
2013-03-02 14:02:00,47.0,22.0,-100.00,WSW,257,8.0,14.0,37,-99.99,,,-99.99,,2013-03-02 21:02:00,
2013-03-02 14:11:00,46.0,21.0,-100.00,West,260,9.0,13.0,36,-99.99,,,-99.99,,2013-03-02 21:11:00,
2013-03-02 14:21:00,46.0,21.0,-100.00,West,260,9.0,13.0,36,-99.99,,,-99.99,,2013-03-02 21:21:00,
2013-03-02 14:31:00,46.0,21.0,-100.00,West,260,9.0,13.0,36,-99.99,,,-99.99,,2013-03-02 21:31:00,
2013-03-02 14:41:00,46.0,24.0,-100.00,West,273,7.0,12.0,41,-99.99,,,-99.99,,2013-03-02 21:41:00,
2013-03-02 14:52:00,47.0,24.0,-100.00,West,266,6.0,11.0,41,-99.99,,,-99.99,,2013-03-02 21:52:00,
2013-03-02 15:01:00,47.0,24.0,-100.00,West,266,6.0,11.0,41,-99.99,,,-99.99,,2013-03-02 22:01:00,
2013-03-02 15:11:00,47.0,25.0,-100.00,West,265,7.0,13.0,41,-99.99,,,-99.99,,2013-03-02 22:11:00,
2013-03-02 15:21:00,47.0,25.0,-100.00,West,265,7.0,13.0,41,-99.99,,,-99.99,,2013-03-02 22:21:00,
2013-03-02 15:31:00,47.0,25.0,-100.00,West,265,7.0,13.0,41,-99.99,,,-99.99,,2013-03-02 22:31:00,
2013-03-02 15:42:00,46.0,25.0,-100.00,West,262,9.0,15.0,42,-99.99,,,-99.99,,2013-03-02 22:42:00,
2013-03-02 15:52:00,46.0,25.0,-100.00,West,262,9.0,15.0,42,-99.99,,,-99.99,,2013-03-02 22:52:00,
2013-03-02 16:01:00,46.0,25.0,-100.00,WSW,246,10.0,17.0,44,-99.99,,,-99.99,,2013-03-02 23:01:00,
2013-03-02 16:11:00,46.0,27.0,-100.00,WSW,252,8.0,13.0,46,-99.99,,,-99.99,,2013-03-02 23:11:00,
2013-03-02 16:21:00,46.0,27.0,-100.00,WSW,252,8.0,13.0,46,-99.99,,,-99.99,,2013-03-02 23:21:00,
2013-03-02 16:31:00,46.0,27.0,-100.00,WSW,252,8.0,13.0,46,-99.99,,,-99.99,,2013-03-02 23:31:00,
2013-03-02 16:42:00,48.0,27.0,-100.00,SSW,196,1.0,4.0,43,-99.99,,,-99.99,,2013-03-02 23:42:00,
2013-03-02 16:52:00,48.0,27.0,-100.00,SSW,196,1.0,4.0,43,-99.99,,,-99.99,,2013-03-02 23:52:00,
2013-03-02 17:02:00,48.0,26.0,-100.00,SW,233,1.0,5.0,41,-99.99,,,-99.99,,2013-03-03 00:02:00,
2013-03-02 17:11:00,47.0,27.0,-100.00,SW,228,3.0,6.0,44,-99.99,,,-99.99,,2013-03-03 00:11:00,
2013-03-02 17:22:00,47.0,27.0,-100.00,SW,228,3.0,6.0,44,-99.99,,,-99.99,,2013-03-03 00:22:00,
2013-03-02 17:31:00,47.0,27.0,-100.00,SW,228,3.0,6.0,44,-99.99,,,-99.99,,2013-03-03 00:31:00,
2013-03-02 17:42:00,46.0,27.0,-100.00,SW,231,3.0,5.0,46,-99.99,,,-99.99,,2013-03-03 00:42:00,
2013-03-02 17:52:00,46.0,27.0,-100.00,SW,231,3.0,5.0,46,-99.99,,,-99.99,,2013-03-03 00:52:00,
2013-03-02 18:01:00,44.0,28.0,-100.00,WSW,241,2.0,3.0,52,-99.99,,,-99.99,,2013-03-03 01:01:00,
2013-03-02 18:11:00,42.0,29.0,-100.00,WSW,245,5.0,8.0,58,-99.99,,,-99.99,,2013-03-03 01:11:00,
2013-03-02 18:21:00,42.0,29.0,-100.00,WSW,245,5.0,8.0,58,-99.99,,,-99.99,,2013-03-03 01:21:00,
2013-03-02 18:31:00,42.0,29.0,-100.00,WSW,245,5.0,8.0,58,-99.99,,,-99.99,,2013-03-03 01:31:00,
2013-03-02 18:41:00,42.0,27.0,-100.00,WSW,239,8.0,13.0,53,-99.99,,,-99.99,,2013-03-03 01:41:00,
2013-03-02 18:52:00,42.0,27.0,-100.00,WSW,239,8.0,13.0,53,-99.99,,,-99.99,,2013-03-03 01:52:00,
2013-03-02 19:01:00,40.0,27.0,-100.00,WSW,240,10.0,15.0,59,-99.99,,,-99.99,,2013-03-03 02:01:00,
2013-03-02 19:11:00,39.0,28.0,-100.00,WSW,255,8.0,14.0,63,-99.99,,,-99.99,,2013-03-03 02:11:00,
2013-03-02 19:21:00,39.0,28.0,-100.00,WSW,255,8.0,14.0,63,-99.99,,,-99.99,,2013-03-03 02:21:00,
2013-03-02 19:31:00,39.0,28.0,-100.00,WSW,255,8.0,14.0,63,-99.99,,,-99.99,,2013-03-03 02:31:00,
2013-03-02 19:41:00,39.0,27.0,-100.00,SW,235,4.0,9.0,62,-99.99,,,-99.99,,2013-03-03 02:41:00,
2013-03-02 19:52:00,39.0,27.0,-100.00,SW,235,4.0,9.0,62,-99.99,,,-99.99,,2013-03-03 02:52:00,
2013-03-02 20:01:00,39.0,27.0,-100.00,WSW,256,1.0,4.0,62,-99.99,,,-99.99,,2013-03-03 03:01:00,
2013-03-02 20:11:00,37.0,27.0,-100.00,WSW,246,3.0,5.0,66,-99.99,,,-99.99,,2013-03-03 03:11:00,
2013-03-02 20:21:00,37.0,27.0,-100.00,WSW,246,3.0,5.0,66,-99.99,,,-99.99,,2013-03-03 03:21:00,
2013-03-02 20:31:00,37.0,27.0,-100.00,WSW,246,3.0,5.0,66,-99.99,,,-99.99,,2013-03-03 03:31:00,
2013-03-02 20:41:00,34.0,26.0,-100.00,WSW,245,4.0,7.0,71,-99.99,,,-99.99,,2013-03-03 03:41:00,
2013-03-02 20:52:00,34.0,26.0,-100.00,WSW,245,4.0,7.0,71,-99.99,,,-99.99,,2013-03-03 03:52:00,
2013-03-02 21:01:00,34.0,25.0,-100.00,WSW,237,4.0,9.0,69,-99.99,,,-99.99,,2013-03-03 04:01:00,
2013-03-02 21:11:00,34.0,24.0,-100.00,WSW,244,3.0,7.0,66,-99.99,,,-99.99,,2013-03-03 04:11:00,
2013-03-02 21:21:00,34.0,24.0,-100.00,WSW,244,3.0,7.0,66,-99.99,,,-99.99,,2013-03-03 04:21:00,
2013-03-02 21:31:00,34.0,24.0,-100.00,WSW,244,3.0,7.0,66,-99.99,,,-99.99,,2013-03-03 04:31:00,
2013-03-02 21:41:00,33.0,23.0,-100.00,WSW,246,3.0,6.0,67,-99.99,,,-99.99,,2013-03-03 04:41:00,
2013-03-02 21:52:00,33.0,23.0,-100.00,WSW,246,3.0,6.0,67,-99.99,,,-99.99,,2013-03-03 04:52:00,
2013-03-02 22:01:00,32.0,23.0,-100.00,WSW,240,3.0,5.0,68,-99.99,,,-99.99,,2013-03-03 05:01:00,
2013-03-02 22:11:00,32.0,23.0,-100.00,SSW,212,2.0,5.0,69,-99.99,,,-99.99,,2013-03-03 05:11:00,
2013-03-02 22:22:00,32.0,23.0,-100.00,SSW,212,2.0,5.0,69,-99.99,,,-99.99,,2013-03-03 05:22:00,
2013-03-02 22:32:00,32.0,23.0,-100.00,SSW,212,2.0,5.0,69,-99.99,,,-99.99,,2013-03-03 05:32:00,
2013-03-02 22:42:00,31.0,23.0,-100.00,WSW,254,1.0,3.0,70,-99.99,,,-99.99,,2013-03-03 05:42:00,
2013-03-02 22:52:00,31.0,23.0,-100.00,WSW,254,1.0,3.0,70,-99.99,,,-99.99,,2013-03-03 05:52:00,
2013-03-02 23:01:00,31.0,23.0,-100.00,WSW,245,1.0,3.0,71,-99.99,,,-99.99,,2013-03-03 06:01:00,
2013-03-02 23:11:00,31.0,23.0,-100.00,SW,225,1.0,2.0,71,-99.99,,,-99.99,,2013-03-03 06:11:00,
2013-03-02 23:21:00,31.0,23.0,-100.00,SW,225,1.0,2.0,71,-99.99,,,-99.99,,2013-03-03 06:21:00,
2013-03-02 23:31:00,31.0,23.0,-100.00,SW,225,1.0,2.0,71,-99.99,,,-99.99,,2013-03-03 06:31:00,
2013-03-02 23:42:00,31.0,23.0,-100.00,SW,234,1.0,2.0,72,-99.99,,,-99.99,,2013-03-03 06:42:00,
2013-03-02 23:52:00,31.0,23.0,-100.00,SW,227,1.0,3.0,73,-99.99,,,-99.99,,2013-03-03 06:52:00,